sensor_id;sensor_type;location;lat;lon;timestamp;P1;durP1;ratioP1;P2;durP2;ratioP2
73030;SDS011;61206;50.816;6.012;2022-07-09T00:00:31;2.47;;;1.70;;
73030;SDS011;61206;50.816;6.012;2022-07-09T00:03:06;2.53;;;1.47;;
73030;SDS011;61206;50.816;6.012;2022-07-09T00:05:38;3.85;;;1.65;;
73030;SDS011;61206;50.816;6.012;2022-07-09T00:08:06;2.25;;;1.50;;
73030;SDS011;61206;50.816;6.012;2022-07-09T00:10:34;1.60;;;1.30;;
73030;SDS011;61206;50.816;6.012;2022-07-09T00:13:00;2.05;;;1.50;;
73030;SDS011;61206;50.816;6.012;2022-07-09T00:15:25;2.73;;;1.63;;
73030;SDS011;61206;50.816;6.012;2022-07-09T00:17:51;3.35;;;1.50;;
73030;SDS011;61206;50.816;6.012;2022-07-09T00:20:17;1.93;;;1.30;;
73030;SDS011;61206;50.816;6.012;2022-07-09T00:22:44;2.83;;;1.70;;
73030;SDS011;61206;50.816;6.012;2022-07-09T00:25:12;2.03;;;1.30;;
73030;SDS011;61206;50.816;6.012;2022-07-09T00:27:41;2.20;;;1.40;;
73030;SDS011;61206;50.816;6.012;2022-07-09T00:30:06;1.97;;;1.50;;
73030;SDS011;61206;50.816;6.012;2022-07-09T00:32:36;2.30;;;1.52;;
73030;SDS011;61206;50.816;6.012;2022-07-09T00:35:02;2.20;;;1.53;;
73030;SDS011;61206;50.816;6.012;2022-07-09T00:37:31;2.15;;;1.50;;
73030;SDS011;61206;50.816;6.012;2022-07-09T00:39:56;2.22;;;1.48;;
73030;SDS011;61206;50.816;6.012;2022-07-09T00:42:22;2.97;;;1.70;;
73030;SDS011;61206;50.816;6.012;2022-07-09T00:44:50;2.70;;;1.83;;
73030;SDS011;61206;50.816;6.012;2022-07-09T00:47:19;2.78;;;1.90;;
73030;SDS011;61206;50.816;6.012;2022-07-09T00:49:44;3.03;;;1.97;;
73030;SDS011;61206;50.816;6.012;2022-07-09T00:52:14;3.28;;;1.65;;
73030;SDS011;61206;50.816;6.012;2022-07-09T00:54:42;3.55;;;2.00;;
73030;SDS011;61206;50.816;6.012;2022-07-09T00:57:09;4.55;;;2.20;;
73030;SDS011;61206;50.816;6.012;2022-07-09T00:59:37;4.15;;;2.60;;
73030;SDS011;61206;50.816;6.012;2022-07-09T01:02:07;5.90;;;2.90;;
73030;SDS011;61206;50.816;6.012;2022-07-09T01:04:36;5.63;;;3.30;;
73030;SDS011;61206;50.816;6.012;2022-07-09T01:07:04;4.95;;;2.88;;
73030;SDS011;61206;50.816;6.012;2022-07-09T01:09:29;4.65;;;2.90;;
73030;SDS011;61206;50.816;6.012;2022-07-09T01:11:56;3.72;;;2.55;;
73030;SDS011;61206;50.816;6.012;2022-07-09T01:14:22;4.30;;;2.30;;
73030;SDS011;61206;50.816;6.012;2022-07-09T01:16:55;3.42;;;2.00;;
73030;SDS011;61206;50.816;6.012;2022-07-09T01:19:24;3.35;;;1.98;;
73030;SDS011;61206;50.816;6.012;2022-07-09T01:21:49;3.90;;;1.90;;
73030;SDS011;61206;50.816;6.012;2022-07-09T01:24:15;4.03;;;1.93;;
73030;SDS011;61206;50.816;6.012;2022-07-09T01:26:40;2.57;;;1.63;;
73030;SDS011;61206;50.816;6.012;2022-07-09T01:29:06;2.67;;;1.70;;
73030;SDS011;61206;50.816;6.012;2022-07-09T01:31:32;3.20;;;1.70;;
73030;SDS011;61206;50.816;6.012;2022-07-09T01:33:59;2.97;;;1.88;;
73030;SDS011;61206;50.816;6.012;2022-07-09T01:36:27;3.63;;;2.17;;
73030;SDS011;61206;50.816;6.012;2022-07-09T01:38:53;2.85;;;1.83;;
73030;SDS011;61206;50.816;6.012;2022-07-09T01:41:18;2.27;;;1.40;;
73030;SDS011;61206;50.816;6.012;2022-07-09T01:43:53;2.90;;;1.80;;
73030;SDS011;61206;50.816;6.012;2022-07-09T01:46:21;3.13;;;1.60;;
73030;SDS011;61206;50.816;6.012;2022-07-09T01:48:47;2.10;;;1.50;;
73030;SDS011;61206;50.816;6.012;2022-07-09T01:51:15;3.05;;;1.80;;
73030;SDS011;61206;50.816;6.012;2022-07-09T01:53:46;2.57;;;1.70;;
73030;SDS011;61206;50.816;6.012;2022-07-09T01:56:19;3.67;;;1.90;;
73030;SDS011;61206;50.816;6.012;2022-07-09T01:58:45;2.92;;;1.77;;
73030;SDS011;61206;50.816;6.012;2022-07-09T02:01:10;2.50;;;1.67;;
73030;SDS011;61206;50.816;6.012;2022-07-09T02:03:36;3.10;;;1.87;;
73030;SDS011;61206;50.816;6.012;2022-07-09T02:06:02;2.58;;;1.63;;
73030;SDS011;61206;50.816;6.012;2022-07-09T02:08:30;3.17;;;2.10;;
73030;SDS011;61206;50.816;6.012;2022-07-09T02:10:56;3.00;;;2.00;;
73030;SDS011;61206;50.816;6.012;2022-07-09T02:13:25;3.78;;;1.98;;
73030;SDS011;61206;50.816;6.012;2022-07-09T02:15:51;3.70;;;2.45;;
73030;SDS011;61206;50.816;6.012;2022-07-09T02:18:16;2.80;;;2.10;;
73030;SDS011;61206;50.816;6.012;2022-07-09T02:20:45;2.50;;;1.83;;
73030;SDS011;61206;50.816;6.012;2022-07-09T02:23:11;2.17;;;1.80;;
73030;SDS011;61206;50.816;6.012;2022-07-09T02:25:42;3.00;;;1.90;;
73030;SDS011;61206;50.816;6.012;2022-07-09T02:28:10;2.40;;;1.67;;
73030;SDS011;61206;50.816;6.012;2022-07-09T02:30:38;2.60;;;1.90;;
73030;SDS011;61206;50.816;6.012;2022-07-09T02:33:04;5.20;;;2.10;;
73030;SDS011;61206;50.816;6.012;2022-07-09T02:35:32;3.23;;;2.20;;
73030;SDS011;61206;50.816;6.012;2022-07-09T02:37:57;3.10;;;2.00;;
73030;SDS011;61206;50.816;6.012;2022-07-09T02:40:25;2.88;;;1.95;;
73030;SDS011;61206;50.816;6.012;2022-07-09T02:42:51;3.10;;;2.20;;
73030;SDS011;61206;50.816;6.012;2022-07-09T02:45:22;3.63;;;2.00;;
73030;SDS011;61206;50.816;6.012;2022-07-09T02:47:48;3.00;;;1.92;;
73030;SDS011;61206;50.816;6.012;2022-07-09T02:52:48;2.88;;;1.85;;
73030;SDS011;61206;50.816;6.012;2022-07-09T02:55:14;2.13;;;1.63;;
73030;SDS011;61206;50.816;6.012;2022-07-09T02:57:42;2.90;;;1.80;;
73030;SDS011;61206;50.816;6.012;2022-07-09T03:00:08;3.10;;;1.73;;
73030;SDS011;61206;50.816;6.012;2022-07-09T03:02:34;2.50;;;1.98;;
73030;SDS011;61206;50.816;6.012;2022-07-09T03:05:03;3.23;;;1.80;;
73030;SDS011;61206;50.816;6.012;2022-07-09T03:07:31;2.45;;;1.67;;
73030;SDS011;61206;50.816;6.012;2022-07-09T03:09:59;2.30;;;1.73;;
73030;SDS011;61206;50.816;6.012;2022-07-09T03:12:25;1.88;;;1.42;;
73030;SDS011;61206;50.816;6.012;2022-07-09T03:14:57;3.30;;;1.60;;
73030;SDS011;61206;50.816;6.012;2022-07-09T03:17:30;2.35;;;1.48;;
73030;SDS011;61206;50.816;6.012;2022-07-09T03:20:01;3.17;;;1.60;;
73030;SDS011;61206;50.816;6.012;2022-07-09T03:22:31;2.35;;;1.70;;
73030;SDS011;61206;50.816;6.012;2022-07-09T03:24:56;2.87;;;1.80;;
73030;SDS011;61206;50.816;6.012;2022-07-09T03:27:22;2.50;;;1.60;;
73030;SDS011;61206;50.816;6.012;2022-07-09T03:29:47;3.20;;;1.92;;
73030;SDS011;61206;50.816;6.012;2022-07-09T03:32:13;3.10;;;1.85;;
73030;SDS011;61206;50.816;6.012;2022-07-09T03:34:39;2.60;;;1.80;;
73030;SDS011;61206;50.816;6.012;2022-07-09T03:37:04;3.50;;;1.92;;
73030;SDS011;61206;50.816;6.012;2022-07-09T03:39:30;3.17;;;1.80;;
73030;SDS011;61206;50.816;6.012;2022-07-09T03:41:56;3.25;;;2.20;;
73030;SDS011;61206;50.816;6.012;2022-07-09T03:44:21;3.07;;;2.00;;
73030;SDS011;61206;50.816;6.012;2022-07-09T03:46:46;3.17;;;1.83;;
73030;SDS011;61206;50.816;6.012;2022-07-09T03:49:15;3.63;;;2.03;;
73030;SDS011;61206;50.816;6.012;2022-07-09T03:51:40;3.17;;;1.70;;
73030;SDS011;61206;50.816;6.012;2022-07-09T03:54:07;3.72;;;2.25;;
73030;SDS011;61206;50.816;6.012;2022-07-09T03:56:36;2.65;;;1.88;;
73030;SDS011;61206;50.816;6.012;2022-07-09T03:59:02;3.00;;;1.97;;
73030;SDS011;61206;50.816;6.012;2022-07-09T04:01:32;3.50;;;1.97;;
73030;SDS011;61206;50.816;6.012;2022-07-09T04:04:01;3.22;;;2.03;;
73030;SDS011;61206;50.816;6.012;2022-07-09T04:06:27;3.10;;;1.98;;
73030;SDS011;61206;50.816;6.012;2022-07-09T04:08:52;3.50;;;1.80;;
73030;SDS011;61206;50.816;6.012;2022-07-09T04:11:18;3.92;;;1.77;;
73030;SDS011;61206;50.816;6.012;2022-07-09T04:13:43;3.07;;;2.07;;
73030;SDS011;61206;50.816;6.012;2022-07-09T04:16:09;4.22;;;2.00;;
73030;SDS011;61206;50.816;6.012;2022-07-09T04:18:36;2.83;;;1.80;;
73030;SDS011;61206;50.816;6.012;2022-07-09T04:21:02;2.55;;;1.73;;
73030;SDS011;61206;50.816;6.012;2022-07-09T04:23:27;2.67;;;1.77;;
73030;SDS011;61206;50.816;6.012;2022-07-09T04:25:53;3.53;;;1.83;;
73030;SDS011;61206;50.816;6.012;2022-07-09T04:28:18;3.17;;;2.10;;
73030;SDS011;61206;50.816;6.012;2022-07-09T04:30:45;3.22;;;1.90;;
73030;SDS011;61206;50.816;6.012;2022-07-09T04:33:26;2.50;;;1.80;;
73030;SDS011;61206;50.816;6.012;2022-07-09T04:35:51;3.00;;;1.97;;
73030;SDS011;61206;50.816;6.012;2022-07-09T04:38:17;3.35;;;2.00;;
73030;SDS011;61206;50.816;6.012;2022-07-09T04:40:42;2.80;;;1.77;;
73030;SDS011;61206;50.816;6.012;2022-07-09T04:43:08;3.27;;;2.10;;
73030;SDS011;61206;50.816;6.012;2022-07-09T04:45:42;5.33;;;2.60;;
73030;SDS011;61206;50.816;6.012;2022-07-09T04:48:14;4.93;;;2.00;;
73030;SDS011;61206;50.816;6.012;2022-07-09T04:50:39;3.70;;;2.13;;
73030;SDS011;61206;50.816;6.012;2022-07-09T04:53:05;5.27;;;2.40;;
73030;SDS011;61206;50.816;6.012;2022-07-09T04:55:30;3.57;;;2.17;;
73030;SDS011;61206;50.816;6.012;2022-07-09T04:57:56;3.78;;;2.60;;
73030;SDS011;61206;50.816;6.012;2022-07-09T05:00:21;3.27;;;2.20;;
73030;SDS011;61206;50.816;6.012;2022-07-09T05:02:47;3.88;;;2.33;;
73030;SDS011;61206;50.816;6.012;2022-07-09T05:05:12;3.93;;;2.10;;
73030;SDS011;61206;50.816;6.012;2022-07-09T05:07:38;3.50;;;2.50;;
73030;SDS011;61206;50.816;6.012;2022-07-09T05:10:08;3.40;;;2.30;;
73030;SDS011;61206;50.816;6.012;2022-07-09T05:12:40;3.10;;;2.10;;
73030;SDS011;61206;50.816;6.012;2022-07-09T05:15:12;3.38;;;2.10;;
73030;SDS011;61206;50.816;6.012;2022-07-09T05:17:38;3.90;;;2.85;;
73030;SDS011;61206;50.816;6.012;2022-07-09T05:20:08;3.88;;;2.47;;
73030;SDS011;61206;50.816;6.012;2022-07-09T05:22:34;4.60;;;2.88;;
73030;SDS011;61206;50.816;6.012;2022-07-09T05:25:01;3.73;;;2.70;;
73030;SDS011;61206;50.816;6.012;2022-07-09T05:27:27;5.10;;;2.57;;
73030;SDS011;61206;50.816;6.012;2022-07-09T05:29:53;3.88;;;2.70;;
73030;SDS011;61206;50.816;6.012;2022-07-09T05:32:22;4.70;;;2.78;;
73030;SDS011;61206;50.816;6.012;2022-07-09T05:34:47;3.70;;;2.50;;
73030;SDS011;61206;50.816;6.012;2022-07-09T05:37:13;5.20;;;2.97;;
73030;SDS011;61206;50.816;6.012;2022-07-09T05:39:38;3.70;;;2.70;;
73030;SDS011;61206;50.816;6.012;2022-07-09T05:42:06;4.53;;;3.13;;
73030;SDS011;61206;50.816;6.012;2022-07-09T05:44:31;4.63;;;3.05;;
73030;SDS011;61206;50.816;6.012;2022-07-09T05:46:57;4.60;;;3.03;;
73030;SDS011;61206;50.816;6.012;2022-07-09T05:49:23;4.43;;;2.87;;
73030;SDS011;61206;50.816;6.012;2022-07-09T05:51:48;4.07;;;2.95;;
73030;SDS011;61206;50.816;6.012;2022-07-09T05:54:17;4.13;;;2.90;;
73030;SDS011;61206;50.816;6.012;2022-07-09T05:56:42;4.32;;;3.00;;
73030;SDS011;61206;50.816;6.012;2022-07-09T05:59:08;4.05;;;3.00;;
73030;SDS011;61206;50.816;6.012;2022-07-09T06:01:36;4.67;;;3.00;;
73030;SDS011;61206;50.816;6.012;2022-07-09T06:04:05;4.50;;;3.00;;
73030;SDS011;61206;50.816;6.012;2022-07-09T06:06:30;4.30;;;2.85;;
73030;SDS011;61206;50.816;6.012;2022-07-09T06:08:56;4.70;;;3.20;;
73030;SDS011;61206;50.816;6.012;2022-07-09T06:11:21;4.13;;;3.00;;
73030;SDS011;61206;50.816;6.012;2022-07-09T06:13:47;4.68;;;3.03;;
73030;SDS011;61206;50.816;6.012;2022-07-09T06:16:14;5.60;;;3.50;;
73030;SDS011;61206;50.816;6.012;2022-07-09T06:18:40;4.05;;;3.10;;
73030;SDS011;61206;50.816;6.012;2022-07-09T06:21:05;4.90;;;3.43;;
73030;SDS011;61206;50.816;6.012;2022-07-09T06:23:31;5.03;;;3.38;;
73030;SDS011;61206;50.816;6.012;2022-07-09T06:26:07;5.32;;;3.03;;
73030;SDS011;61206;50.816;6.012;2022-07-09T06:28:36;4.97;;;3.40;;
73030;SDS011;61206;50.816;6.012;2022-07-09T06:31:12;5.85;;;3.50;;
73030;SDS011;61206;50.816;6.012;2022-07-09T06:33:42;6.13;;;3.80;;
73030;SDS011;61206;50.816;6.012;2022-07-09T06:36:19;5.75;;;3.70;;
73030;SDS011;61206;50.816;6.012;2022-07-09T06:38:58;6.60;;;4.33;;
73030;SDS011;61206;50.816;6.012;2022-07-09T06:41:45;5.63;;;3.43;;
73030;SDS011;61206;50.816;6.012;2022-07-09T06:44:14;5.30;;;3.83;;
73030;SDS011;61206;50.816;6.012;2022-07-09T06:46:55;6.60;;;4.15;;
73030;SDS011;61206;50.816;6.012;2022-07-09T06:49:30;6.13;;;4.25;;
73030;SDS011;61206;50.816;6.012;2022-07-09T06:52:10;9.50;;;4.63;;
73030;SDS011;61206;50.816;6.012;2022-07-09T06:54:38;5.90;;;4.18;;
73030;SDS011;61206;50.816;6.012;2022-07-09T06:57:21;5.40;;;3.70;;
73030;SDS011;61206;50.816;6.012;2022-07-09T07:02:53;6.72;;;4.18;;
73030;SDS011;61206;50.816;6.012;2022-07-09T07:05:42;6.03;;;3.80;;
73030;SDS011;61206;50.816;6.012;2022-07-09T07:08:21;4.87;;;3.60;;
73030;SDS011;61206;50.816;6.012;2022-07-09T07:10:56;5.35;;;3.42;;
73030;SDS011;61206;50.816;6.012;2022-07-09T07:13:28;5.25;;;3.70;;
73030;SDS011;61206;50.816;6.012;2022-07-09T07:18:47;4.70;;;3.47;;
73030;SDS011;61206;50.816;6.012;2022-07-09T07:21:26;4.25;;;3.08;;
73030;SDS011;61206;50.816;6.012;2022-07-09T07:27:21;4.68;;;3.20;;
73030;SDS011;61206;50.816;6.012;2022-07-09T07:30:13;5.97;;;3.05;;
73030;SDS011;61206;50.816;6.012;2022-07-09T07:33:02;4.80;;;3.20;;
73030;SDS011;61206;50.816;6.012;2022-07-09T07:38:25;4.80;;;3.53;;
73030;SDS011;61206;50.816;6.012;2022-07-09T07:40:52;8.00;;;4.05;;
73030;SDS011;61206;50.816;6.012;2022-07-09T07:43:25;6.40;;;3.80;;
73030;SDS011;61206;50.816;6.012;2022-07-09T07:46:15;6.13;;;3.40;;
73030;SDS011;61206;50.816;6.012;2022-07-09T07:48:46;4.45;;;3.05;;
73030;SDS011;61206;50.816;6.012;2022-07-09T07:51:22;4.65;;;3.50;;
73030;SDS011;61206;50.816;6.012;2022-07-09T07:54:00;8.27;;;3.17;;
73030;SDS011;61206;50.816;6.012;2022-07-09T07:56:34;4.72;;;3.40;;
73030;SDS011;61206;50.816;6.012;2022-07-09T08:02:00;4.93;;;3.13;;
73030;SDS011;61206;50.816;6.012;2022-07-09T08:04:36;3.65;;;2.58;;
73030;SDS011;61206;50.816;6.012;2022-07-09T08:07:09;5.50;;;2.60;;
73030;SDS011;61206;50.816;6.012;2022-07-09T08:09:35;2.92;;;2.35;;
73030;SDS011;61206;50.816;6.012;2022-07-09T08:12:03;3.95;;;2.38;;
73030;SDS011;61206;50.816;6.012;2022-07-09T08:14:51;3.88;;;2.42;;
73030;SDS011;61206;50.816;6.012;2022-07-09T08:17:20;4.47;;;2.70;;
73030;SDS011;61206;50.816;6.012;2022-07-09T08:19:49;3.47;;;2.13;;
73030;SDS011;61206;50.816;6.012;2022-07-09T08:22:15;3.28;;;2.20;;
73030;SDS011;61206;50.816;6.012;2022-07-09T08:27:18;2.88;;;2.00;;
73030;SDS011;61206;50.816;6.012;2022-07-09T08:29:47;3.13;;;1.90;;
73030;SDS011;61206;50.816;6.012;2022-07-09T08:32:15;3.63;;;2.17;;
73030;SDS011;61206;50.816;6.012;2022-07-09T08:34:41;4.30;;;2.67;;
73030;SDS011;61206;50.816;6.012;2022-07-09T08:37:09;2.90;;;2.40;;
73030;SDS011;61206;50.816;6.012;2022-07-09T08:39:34;3.43;;;2.23;;
73030;SDS011;61206;50.816;6.012;2022-07-09T08:42:09;3.30;;;2.03;;
73030;SDS011;61206;50.816;6.012;2022-07-09T08:44:37;1.83;;;1.60;;
73030;SDS011;61206;50.816;6.012;2022-07-09T08:47:04;2.10;;;1.60;;
73030;SDS011;61206;50.816;6.012;2022-07-09T08:49:30;3.13;;;2.03;;
73030;SDS011;61206;50.816;6.012;2022-07-09T08:52:00;2.13;;;1.85;;
73030;SDS011;61206;50.816;6.012;2022-07-09T08:54:27;2.35;;;1.75;;
73030;SDS011;61206;50.816;6.012;2022-07-09T08:56:57;3.00;;;1.65;;
73030;SDS011;61206;50.816;6.012;2022-07-09T08:59:22;2.15;;;1.80;;
73030;SDS011;61206;50.816;6.012;2022-07-09T09:01:48;2.53;;;2.03;;
73030;SDS011;61206;50.816;6.012;2022-07-09T09:04:13;2.00;;;1.67;;
73030;SDS011;61206;50.816;6.012;2022-07-09T09:06:39;2.40;;;1.70;;
73030;SDS011;61206;50.816;6.012;2022-07-09T09:09:07;2.08;;;1.70;;
73030;SDS011;61206;50.816;6.012;2022-07-09T09:11:42;2.50;;;1.90;;
73030;SDS011;61206;50.816;6.012;2022-07-09T09:14:16;2.17;;;1.92;;
73030;SDS011;61206;50.816;6.012;2022-07-09T09:16:45;2.38;;;1.80;;
73030;SDS011;61206;50.816;6.012;2022-07-09T09:19:11;2.70;;;1.80;;
73030;SDS011;61206;50.816;6.012;2022-07-09T09:21:37;2.57;;;1.90;;
73030;SDS011;61206;50.816;6.012;2022-07-09T09:24:06;2.10;;;1.90;;
73030;SDS011;61206;50.816;6.012;2022-07-09T09:26:32;2.10;;;1.90;;
73030;SDS011;61206;50.816;6.012;2022-07-09T09:29:02;2.05;;;1.50;;
73030;SDS011;61206;50.816;6.012;2022-07-09T09:31:44;1.83;;;1.50;;
73030;SDS011;61206;50.816;6.012;2022-07-09T09:34:12;1.40;;;1.30;;
73030;SDS011;61206;50.816;6.012;2022-07-09T09:42:01;1.87;;;1.67;;
73030;SDS011;61206;50.816;6.012;2022-07-09T09:44:31;1.70;;;1.60;;
73030;SDS011;61206;50.816;6.012;2022-07-09T09:47:05;2.22;;;1.67;;
73030;SDS011;61206;50.816;6.012;2022-07-09T09:49:32;2.85;;;1.90;;
73030;SDS011;61206;50.816;6.012;2022-07-09T09:54:35;2.38;;;1.70;;
73030;SDS011;61206;50.816;6.012;2022-07-09T09:57:21;2.17;;;1.65;;
73030;SDS011;61206;50.816;6.012;2022-07-09T09:59:49;3.20;;;2.10;;
73030;SDS011;61206;50.816;6.012;2022-07-09T10:02:17;2.13;;;1.80;;
73030;SDS011;61206;50.816;6.012;2022-07-09T10:04:45;2.47;;;1.57;;
73030;SDS011;61206;50.816;6.012;2022-07-09T10:07:11;2.43;;;1.80;;
73030;SDS011;61206;50.816;6.012;2022-07-09T10:09:39;1.98;;;1.73;;
73030;SDS011;61206;50.816;6.012;2022-07-09T10:12:11;2.53;;;2.00;;
73030;SDS011;61206;50.816;6.012;2022-07-09T10:14:37;2.05;;;1.60;;
73030;SDS011;61206;50.816;6.012;2022-07-09T10:19:36;2.35;;;1.70;;
73030;SDS011;61206;50.816;6.012;2022-07-09T10:22:02;1.70;;;1.60;;
73030;SDS011;61206;50.816;6.012;2022-07-09T10:24:33;1.80;;;1.60;;
73030;SDS011;61206;50.816;6.012;2022-07-09T10:27:07;1.70;;;1.60;;
73030;SDS011;61206;50.816;6.012;2022-07-09T10:29:35;1.70;;;1.40;;
73030;SDS011;61206;50.816;6.012;2022-07-09T10:32:02;1.80;;;1.70;;
73030;SDS011;61206;50.816;6.012;2022-07-09T10:34:42;1.70;;;1.50;;
73030;SDS011;61206;50.816;6.012;2022-07-09T10:37:15;2.57;;;1.87;;
73030;SDS011;61206;50.816;6.012;2022-07-09T10:39:53;3.38;;;1.70;;
73030;SDS011;61206;50.816;6.012;2022-07-09T10:42:20;2.67;;;2.05;;
73030;SDS011;61206;50.816;6.012;2022-07-09T10:44:48;1.80;;;1.50;;
73030;SDS011;61206;50.816;6.012;2022-07-09T10:47:20;2.07;;;1.60;;
73030;SDS011;61206;50.816;6.012;2022-07-09T10:49:46;2.20;;;1.80;;
73030;SDS011;61206;50.816;6.012;2022-07-09T10:52:12;1.90;;;1.60;;
73030;SDS011;61206;50.816;6.012;2022-07-09T10:54:54;2.95;;;1.80;;
73030;SDS011;61206;50.816;6.012;2022-07-09T10:57:20;2.00;;;1.63;;
73030;SDS011;61206;50.816;6.012;2022-07-09T10:59:49;1.90;;;1.60;;
73030;SDS011;61206;50.816;6.012;2022-07-09T11:02:21;2.10;;;1.80;;
73030;SDS011;61206;50.816;6.012;2022-07-09T11:04:49;1.70;;;1.60;;
73030;SDS011;61206;50.816;6.012;2022-07-09T11:07:20;2.20;;;1.73;;
73030;SDS011;61206;50.816;6.012;2022-07-09T11:09:52;2.73;;;2.00;;
73030;SDS011;61206;50.816;6.012;2022-07-09T11:12:21;2.93;;;1.77;;
73030;SDS011;61206;50.816;6.012;2022-07-09T11:14:54;2.42;;;1.83;;
73030;SDS011;61206;50.816;6.012;2022-07-09T11:17:21;1.92;;;1.58;;
73030;SDS011;61206;50.816;6.012;2022-07-09T11:19:47;2.00;;;1.60;;
73030;SDS011;61206;50.816;6.012;2022-07-09T11:22:16;2.85;;;1.90;;
73030;SDS011;61206;50.816;6.012;2022-07-09T11:24:45;2.03;;;1.80;;
73030;SDS011;61206;50.816;6.012;2022-07-09T11:27:11;2.40;;;2.00;;
73030;SDS011;61206;50.816;6.012;2022-07-09T11:29:47;3.80;;;2.03;;
73030;SDS011;61206;50.816;6.012;2022-07-09T11:32:16;2.40;;;2.20;;
73030;SDS011;61206;50.816;6.012;2022-07-09T11:34:51;3.47;;;2.20;;
73030;SDS011;61206;50.816;6.012;2022-07-09T11:37:23;3.05;;;2.33;;
73030;SDS011;61206;50.816;6.012;2022-07-09T11:40:01;4.15;;;2.00;;
73030;SDS011;61206;50.816;6.012;2022-07-09T11:42:27;3.08;;;2.00;;
73030;SDS011;61206;50.816;6.012;2022-07-09T11:44:56;3.70;;;2.30;;
73030;SDS011;61206;50.816;6.012;2022-07-09T11:47:37;2.90;;;1.98;;
73030;SDS011;61206;50.816;6.012;2022-07-09T11:50:05;2.50;;;1.90;;
73030;SDS011;61206;50.816;6.012;2022-07-09T11:52:43;2.77;;;2.10;;
73030;SDS011;61206;50.816;6.012;2022-07-09T11:55:18;2.13;;;1.80;;
73030;SDS011;61206;50.816;6.012;2022-07-09T11:57:52;2.85;;;2.00;;
73030;SDS011;61206;50.816;6.012;2022-07-09T12:00:20;3.42;;;1.90;;
73030;SDS011;61206;50.816;6.012;2022-07-09T12:02:57;3.17;;;1.92;;
73030;SDS011;61206;50.816;6.012;2022-07-09T12:05:36;2.20;;;1.75;;
73030;SDS011;61206;50.816;6.012;2022-07-09T12:08:03;2.00;;;1.73;;
73030;SDS011;61206;50.816;6.012;2022-07-09T12:10:36;3.22;;;1.80;;
73030;SDS011;61206;50.816;6.012;2022-07-09T12:13:06;2.67;;;1.88;;
73030;SDS011;61206;50.816;6.012;2022-07-09T12:15:35;3.20;;;1.80;;
73030;SDS011;61206;50.816;6.012;2022-07-09T12:18:01;2.50;;;1.90;;
73030;SDS011;61206;50.816;6.012;2022-07-09T12:20:31;2.60;;;2.00;;
73030;SDS011;61206;50.816;6.012;2022-07-09T12:23:00;2.30;;;2.00;;
73030;SDS011;61206;50.816;6.012;2022-07-09T12:25:26;3.90;;;2.40;;
73030;SDS011;61206;50.816;6.012;2022-07-09T12:27:51;3.47;;;1.95;;
73030;SDS011;61206;50.816;6.012;2022-07-09T12:30:17;3.27;;;2.17;;
73030;SDS011;61206;50.816;6.012;2022-07-09T12:32:46;2.63;;;2.17;;
73030;SDS011;61206;50.816;6.012;2022-07-09T12:35:15;2.80;;;2.10;;
73030;SDS011;61206;50.816;6.012;2022-07-09T12:37:42;4.13;;;2.33;;
73030;SDS011;61206;50.816;6.012;2022-07-09T12:40:15;3.47;;;2.28;;
73030;SDS011;61206;50.816;6.012;2022-07-09T12:42:41;4.50;;;2.50;;
73030;SDS011;61206;50.816;6.012;2022-07-09T12:45:07;3.60;;;3.00;;
73030;SDS011;61206;50.816;6.012;2022-07-09T12:47:38;3.30;;;2.80;;
73030;SDS011;61206;50.816;6.012;2022-07-09T12:50:10;4.57;;;3.17;;
73030;SDS011;61206;50.816;6.012;2022-07-09T12:52:39;3.60;;;3.00;;
73030;SDS011;61206;50.816;6.012;2022-07-09T12:55:04;4.40;;;3.15;;
73030;SDS011;61206;50.816;6.012;2022-07-09T12:57:34;3.95;;;3.10;;
73030;SDS011;61206;50.816;6.012;2022-07-09T13:00:00;6.65;;;3.40;;
73030;SDS011;61206;50.816;6.012;2022-07-09T13:02:26;4.90;;;3.40;;
73030;SDS011;61206;50.816;6.012;2022-07-09T13:04:52;4.10;;;3.47;;
73030;SDS011;61206;50.816;6.012;2022-07-09T13:07:21;5.22;;;3.53;;
73030;SDS011;61206;50.816;6.012;2022-07-09T13:09:46;5.07;;;4.03;;
73030;SDS011;61206;50.816;6.012;2022-07-09T13:12:12;5.15;;;3.60;;
73030;SDS011;61206;50.816;6.012;2022-07-09T13:14:37;6.90;;;4.30;;
73030;SDS011;61206;50.816;6.012;2022-07-09T13:17:04;8.67;;;5.80;;
73030;SDS011;61206;50.816;6.012;2022-07-09T13:19:32;8.13;;;5.97;;
73030;SDS011;61206;50.816;6.012;2022-07-09T13:22:01;10.77;;;6.63;;
73030;SDS011;61206;50.816;6.012;2022-07-09T13:24:26;9.50;;;6.78;;
73030;SDS011;61206;50.816;6.012;2022-07-09T13:26:52;11.23;;;6.73;;
73030;SDS011;61206;50.816;6.012;2022-07-09T13:29:18;9.00;;;5.88;;
73030;SDS011;61206;50.816;6.012;2022-07-09T13:31:45;8.40;;;5.50;;
73030;SDS011;61206;50.816;6.012;2022-07-09T13:34:10;7.60;;;5.25;;
73030;SDS011;61206;50.816;6.012;2022-07-09T13:36:36;9.55;;;5.20;;
73030;SDS011;61206;50.816;6.012;2022-07-09T13:39:01;7.13;;;4.70;;
73030;SDS011;61206;50.816;6.012;2022-07-09T13:41:27;6.32;;;4.78;;
73030;SDS011;61206;50.816;6.012;2022-07-09T13:43:55;5.63;;;4.40;;
73030;SDS011;61206;50.816;6.012;2022-07-09T13:46:21;6.47;;;4.55;;
73030;SDS011;61206;50.816;6.012;2022-07-09T13:48:47;6.63;;;5.20;;
73030;SDS011;61206;50.816;6.012;2022-07-09T13:51:12;6.32;;;4.40;;
73030;SDS011;61206;50.816;6.012;2022-07-09T13:53:38;5.73;;;4.20;;
73030;SDS011;61206;50.816;6.012;2022-07-09T13:56:06;5.32;;;3.78;;
73030;SDS011;61206;50.816;6.012;2022-07-09T13:58:32;4.23;;;3.30;;
73030;SDS011;61206;50.816;6.012;2022-07-09T14:00:57;3.90;;;3.00;;
73030;SDS011;61206;50.816;6.012;2022-07-09T14:03:23;4.20;;;2.50;;
73030;SDS011;61206;50.816;6.012;2022-07-09T14:05:48;3.20;;;2.47;;
73030;SDS011;61206;50.816;6.012;2022-07-09T14:08:14;3.13;;;2.40;;
73030;SDS011;61206;50.816;6.012;2022-07-09T14:10:39;3.23;;;2.30;;
73030;SDS011;61206;50.816;6.012;2022-07-09T14:13:05;2.70;;;2.17;;
73030;SDS011;61206;50.816;6.012;2022-07-09T14:15:33;2.60;;;1.83;;
73030;SDS011;61206;50.816;6.012;2022-07-09T14:17:59;2.83;;;1.70;;
73030;SDS011;61206;50.816;6.012;2022-07-09T14:20:28;2.15;;;1.90;;
73030;SDS011;61206;50.816;6.012;2022-07-09T14:22:53;1.77;;;1.42;;
73030;SDS011;61206;50.816;6.012;2022-07-09T14:25:19;2.00;;;1.50;;
73030;SDS011;61206;50.816;6.012;2022-07-09T14:27:44;1.90;;;1.60;;
73030;SDS011;61206;50.816;6.012;2022-07-09T14:30:13;1.83;;;1.30;;
73030;SDS011;61206;50.816;6.012;2022-07-09T14:32:38;1.60;;;1.50;;
73030;SDS011;61206;50.816;6.012;2022-07-09T14:35:07;1.90;;;1.40;;
73030;SDS011;61206;50.816;6.012;2022-07-09T14:37:36;2.47;;;1.58;;
73030;SDS011;61206;50.816;6.012;2022-07-09T14:40:08;1.85;;;1.55;;
73030;SDS011;61206;50.816;6.012;2022-07-09T14:42:34;2.03;;;1.63;;
73030;SDS011;61206;50.816;6.012;2022-07-09T14:45:00;1.50;;;1.30;;
73030;SDS011;61206;50.816;6.012;2022-07-09T14:47:25;2.07;;;1.50;;
73030;SDS011;61206;50.816;6.012;2022-07-09T14:49:51;1.80;;;1.57;;
73030;SDS011;61206;50.816;6.012;2022-07-09T14:52:19;1.90;;;1.40;;
73030;SDS011;61206;50.816;6.012;2022-07-09T14:54:45;1.63;;;1.42;;
73030;SDS011;61206;50.816;6.012;2022-07-09T14:57:10;1.70;;;1.50;;
73030;SDS011;61206;50.816;6.012;2022-07-09T14:59:36;2.25;;;1.42;;
73030;SDS011;61206;50.816;6.012;2022-07-09T15:02:08;2.35;;;1.38;;
73030;SDS011;61206;50.816;6.012;2022-07-09T15:04:34;2.03;;;1.60;;
73030;SDS011;61206;50.816;6.012;2022-07-09T15:07:03;2.60;;;1.50;;
73030;SDS011;61206;50.816;6.012;2022-07-09T15:09:29;1.90;;;1.50;;
73030;SDS011;61206;50.816;6.012;2022-07-09T15:11:55;2.10;;;1.50;;
73030;SDS011;61206;50.816;6.012;2022-07-09T15:14:21;1.88;;;1.30;;
73030;SDS011;61206;50.816;6.012;2022-07-09T15:16:47;2.55;;;1.60;;
73030;SDS011;61206;50.816;6.012;2022-07-09T15:19:16;1.63;;;1.40;;
73030;SDS011;61206;50.816;6.012;2022-07-09T15:27:31;1.67;;;1.40;;
73030;SDS011;61206;50.816;6.012;2022-07-09T15:30:04;1.80;;;1.30;;
73030;SDS011;61206;50.816;6.012;2022-07-09T15:32:31;3.22;;;1.40;;